Time;durP1;ratioP1;P1;durP2;ratioP2;P2;SDS_P1;SDS_P2;PMS_P1;PMS_P2;Temp;Humidity;BMP_temperature;BMP_pressure;BME280_temperature;BME280_humidity;BME280_pressure;Samples;Min_cycle;Max_cycle;Signal;HPM_P1;HPM_P2
2021/07/19 00:00:17;;;;;;;8.10;4.90;;;18.00;87.10;;;;;;5057323;28;20085;-79
2021/07/19 00:02:43;;;;;;;9.50;4.00;;;18.00;87.30;;;;;;5014139;28;20040;-80
2021/07/19 00:05:10;;;;;;;11.38;3.90;;;18.00;85.80;;;;;;5026602;28;20488;-80
2021/07/19 00:07:36;;;;;;;9.57;4.20;;;18.10;88.70;;;;;;5023447;28;20058;-79
2021/07/19 00:10:03;;;;;;;5.97;4.10;;;17.90;86.30;;;;;;5038170;28;20032;-79
2021/07/19 00:12:28;;;;;;;5.93;4.25;;;17.80;86.50;;;;;;5029546;28;20056;-80
2021/07/19 00:14:54;;;;;;;7.40;4.43;;;17.80;86.60;;;;;;5014071;28;20067;-80
2021/07/19 00:17:20;;;;;;;14.20;4.22;;;17.60;87.20;;;;;;5028376;28;20044;-80
2021/07/19 00:19:48;;;;;;;8.90;4.85;;;17.60;87.80;;;;;;5033187;28;20032;-79
2021/07/19 00:22:14;;;;;;;10.73;4.70;;;17.60;87.10;;;;;;5027079;28;20032;-79
2021/07/19 00:24:39;;;;;;;6.75;4.53;;;17.60;86.90;;;;;;5021374;28;20078;-79
2021/07/19 00:27:05;;;;;;;12.95;4.93;;;17.50;87.80;;;;;;5030183;28;20504;-79
2021/07/19 00:29:30;;;;;;;6.38;4.32;;;17.50;88.50;;;;;;5019342;28;20044;-79
2021/07/19 00:31:56;;;;;;;6.55;4.60;;;17.50;87.30;;;;;;5033473;28;20386;-79
2021/07/19 00:34:21;;;;;;;10.75;3.70;;;17.40;87.10;;;;;;5034298;28;20497;-79
2021/07/19 00:36:50;;;;;;;9.32;4.35;;;17.40;86.50;;;;;;5036355;28;20158;-80
2021/07/19 00:39:15;;;;;;;8.70;4.75;;;17.40;87.90;;;;;;5050848;28;20033;-79
2021/07/19 00:41:41;;;;;;;5.78;4.55;;;17.40;88.00;;;;;;5024236;28;20029;-80
2021/07/19 00:44:07;;;;;;;9.85;4.47;;;17.30;87.90;;;;;;5026061;28;20395;-79
2021/07/19 00:46:32;;;;;;;7.53;4.85;;;17.30;86.90;;;;;;5045353;28;20973;-79
2021/07/19 00:48:58;;;;;;;9.00;4.82;;;17.40;87.70;;;;;;5016588;28;20048;-79
2021/07/19 00:51:25;;;;;;;9.27;5.43;;;17.10;89.30;;;;;;5041933;28;20036;-79
2021/07/19 00:53:50;;;;;;;10.18;4.85;;;17.10;88.10;;;;;;5048240;28;20078;-79
2021/07/19 00:56:17;;;;;;;10.77;6.28;;;17.00;88.90;;;;;;5041324;28;20028;-80
2021/07/19 00:58:42;;;;;;;7.57;4.57;;;16.80;90.40;;;;;;5041239;28;20380;-79
2021/07/19 01:01:08;;;;;;;13.73;4.60;;;16.70;90.50;;;;;;5022694;28;20029;-79
2021/07/19 01:03:33;;;;;;;9.80;4.28;;;16.90;92.00;;;;;;5041801;28;20131;-80
2021/07/19 01:06:00;;;;;;;11.65;4.82;;;16.90;90.50;;;;;;5013308;28;20500;-79
2021/07/19 01:08:25;;;;;;;6.35;4.40;;;17.00;89.30;;;;;;5028693;28;20514;-79
2021/07/19 01:10:51;;;;;;;6.45;4.30;;;16.90;90.30;;;;;;5044267;28;20020;-79
2021/07/19 01:13:16;;;;;;;6.05;4.63;;;16.80;90.00;;;;;;5048268;28;20025;-80
2021/07/19 01:15:42;;;;;;;7.93;5.05;;;16.80;90.80;;;;;;5031931;28;20029;-79
2021/07/19 01:18:08;;;;;;;7.35;4.32;;;16.80;90.20;;;;;;5020183;28;20147;-79
2021/07/19 01:20:42;;;;;;;6.97;4.65;;;16.70;90.50;;;;;;5030572;28;20029;-79
2021/07/19 01:23:29;;;;;;;7.25;5.10;;;16.60;91.10;;;;;;5034585;28;20029;-79
2021/07/19 01:26:13;;;;;;;8.18;5.03;;;16.50;92.20;;;;;;5057693;28;20163;-79
2021/07/19 01:28:45;;;;;;;5.82;4.82;;;16.50;90.80;;;;;;5047802;28;20044;-79
2021/07/19 01:31:37;;;;;;;8.13;4.45;;;16.50;91.10;;;;;;5038284;28;20046;-78
2021/07/19 01:34:07;;;;;;;6.53;4.50;;;16.40;92.80;;;;;;5043393;28;20033;-79
2021/07/19 01:36:35;;;;;;;8.57;5.45;;;16.30;92.60;;;;;;5033687;28;20036;-79
2021/07/19 01:39:00;;;;;;;10.05;5.10;;;16.30;92.80;;;;;;5049086;28;20503;-79
2021/07/19 01:41:27;;;;;;;6.80;4.68;;;16.30;93.10;;;;;;5031308;28;20031;-79
2021/07/19 01:43:54;;;;;;;8.10;4.32;;;16.20;93.70;;;;;;5032958;28;20039;-79
2021/07/19 01:46:19;;;;;;;8.93;5.15;;;16.20;92.30;;;;;;5042413;28;20071;-79
2021/07/19 01:48:45;;;;;;;7.90;5.00;;;16.30;93.90;;;;;;5039730;28;20082;-78
2021/07/19 01:51:10;;;;;;;7.63;5.05;;;16.10;92.30;;;;;;5042343;28;20602;-78
2021/07/19 01:53:36;;;;;;;8.50;5.10;;;16.00;93.70;;;;;;5048400;28;20021;-78
2021/07/19 01:56:02;;;;;;;9.55;4.85;;;16.10;93.40;;;;;;5012861;28;20425;-79
2021/07/19 01:58:27;;;;;;;6.50;4.88;;;15.90;93.60;;;;;;5054635;28;20024;-80
2021/07/19 02:00:53;;;;;;;7.72;4.85;;;15.90;93.40;;;;;;5050996;28;20028;-78
2021/07/19 02:03:19;;;;;;;7.10;4.68;;;16.00;93.30;;;;;;5042739;28;20115;-79
2021/07/19 02:05:45;;;;;;;7.63;5.03;;;15.90;92.70;;;;;;5037086;28;20032;-78
2021/07/19 02:08:14;;;;;;;6.75;4.93;;;15.90;93.50;;;;;;5028755;28;20090;-78
2021/07/19 02:10:39;;;;;;;7.05;5.32;;;15.80;93.80;;;;;;5043724;28;20334;-78
2021/07/19 02:13:05;;;;;;;8.75;6.20;;;15.90;93.20;;;;;;5032982;28;20123;-78
2021/07/19 02:15:30;;;;;;;8.90;5.43;;;15.70;93.10;;;;;;5037844;28;20400;-78
2021/07/19 02:17:57;;;;;;;9.10;5.15;;;15.70;93.10;;;;;;5054944;28;20032;-79
2021/07/19 02:20:23;;;;;;;8.20;5.25;;;15.70;92.90;;;;;;5033390;28;20035;-79
2021/07/19 02:22:49;;;;;;;9.00;5.45;;;15.70;93.10;;;;;;5038417;28;20392;-78
2021/07/19 02:25:15;;;;;;;11.25;6.68;;;15.70;93.10;;;;;;5040211;28;20051;-78
2021/07/19 02:27:47;;;;;;;10.35;6.70;;;15.60;93.30;;;;;;5049371;28;20251;-79
2021/07/19 02:30:16;;;;;;;12.07;6.20;;;15.60;93.40;;;;;;5050231;28;20032;-78
2021/07/19 02:32:43;;;;;;;8.75;6.05;;;15.60;95.20;;;;;;5027108;28;20256;-78
2021/07/19 02:35:09;;;;;;;12.57;6.57;;;15.60;94.60;;;;;;5025980;28;20400;-78
2021/07/19 02:37:39;;;;;;;14.52;6.80;;;15.60;94.50;;;;;;5021291;28;20369;-78
2021/07/19 02:40:05;;;;;;;11.52;6.75;;;15.70;94.50;;;;;;5038651;28;20029;-78
2021/07/19 02:42:31;;;;;;;12.15;6.93;;;15.60;95.10;;;;;;5044811;28;20029;-78
2021/07/19 02:44:57;;;;;;;10.98;5.85;;;15.50;94.30;;;;;;5032713;28;20452;-78
2021/07/19 02:47:25;;;;;;;10.20;5.85;;;15.50;94.40;;;;;;5042699;28;20116;-78
2021/07/19 02:49:50;;;;;;;9.68;6.50;;;15.50;94.70;;;;;;5021100;28;20040;-79
2021/07/19 02:52:16;;;;;;;8.65;5.80;;;15.40;94.20;;;;;;5041511;28;20107;-78
2021/07/19 02:54:42;;;;;;;9.68;5.75;;;15.40;94.10;;;;;;5048240;28;21451;-79
2021/07/19 02:57:08;;;;;;;15.55;6.93;;;15.40;94.40;;;;;;5023485;28;20029;-79
2021/07/19 02:59:33;;;;;;;12.38;6.25;;;15.40;94.40;;;;;;5044048;28;20036;-78
2021/07/19 03:01:59;;;;;;;11.55;6.75;;;15.30;94.30;;;;;;5037008;28;20049;-78
2021/07/19 03:04:25;;;;;;;12.95;6.85;;;15.30;94.80;;;;;;5011899;28;20120;-79
2021/07/19 03:06:50;;;;;;;9.57;6.40;;;15.40;95.00;;;;;;5022792;28;20144;-79
2021/07/19 03:09:17;;;;;;;16.27;6.60;;;15.40;95.00;;;;;;5028681;28;20044;-78
2021/07/19 03:11:47;;;;;;;12.50;6.72;;;15.40;96.10;;;;;;5041970;28;20051;-79
2021/07/19 03:14:14;;;;;;;12.10;6.65;;;15.40;95.20;;;;;;5025229;28;20408;-79
2021/07/19 03:16:41;;;;;;;9.70;7.18;;;15.40;94.50;;;;;;5021396;28;20036;-79
2021/07/19 03:19:08;;;;;;;11.13;7.68;;;15.40;94.90;;;;;;5031433;28;20044;-79
2021/07/19 03:21:34;;;;;;;9.70;7.07;;;15.40;95.50;;;;;;5037429;28;20033;-79
2021/07/19 03:23:59;;;;;;;13.07;7.20;;;15.50;95.30;;;;;;5033698;28;20037;-79
2021/07/19 03:26:25;;;;;;;11.70;7.40;;;15.50;96.70;;;;;;5035124;28;20037;-78
2021/07/19 03:28:51;;;;;;;10.35;6.78;;;15.60;95.30;;;;;;5037879;28;20029;-79
2021/07/19 03:31:17;;;;;;;13.05;8.20;;;15.50;95.30;;;;;;5046911;28;20033;-79
2021/07/19 03:33:43;;;;;;;13.45;7.57;;;15.60;95.80;;;;;;5053473;28;20025;-79
2021/07/19 03:36:10;;;;;;;12.50;7.28;;;15.70;96.30;;;;;;5045887;28;20377;-79
2021/07/19 03:38:36;;;;;;;10.27;7.00;;;15.70;95.40;;;;;;5041011;28;20248;-79
2021/07/19 03:41:01;;;;;;;11.57;7.22;;;15.60;95.10;;;;;;5021814;28;20028;-79
2021/07/19 03:43:30;;;;;;;10.88;7.00;;;15.70;95.20;;;;;;5016592;28;20048;-79
2021/07/19 03:45:55;;;;;;;10.75;7.10;;;15.70;95.20;;;;;;5035792;28;20532;-79
2021/07/19 03:48:21;;;;;;;12.60;8.07;;;15.80;95.20;;;;;;5056934;28;20116;-79
2021/07/19 03:50:46;;;;;;;14.18;7.95;;;15.80;95.40;;;;;;5021253;28;20102;-79
2021/07/19 03:53:13;;;;;;;17.27;8.40;;;15.70;94.40;;;;;;5027026;28;20052;-78
2021/07/19 03:55:38;;;;;;;8.65;6.82;;;15.70;95.20;;;;;;5023477;28;20501;-78
2021/07/19 03:58:04;;;;;;;11.00;8.30;;;15.70;96.10;;;;;;5045519;28;20115;-79
2021/07/19 04:00:30;;;;;;;13.13;8.30;;;15.70;95.00;;;;;;5030832;28;20044;-78
2021/07/19 04:02:56;;;;;;;15.18;8.55;;;15.70;95.70;;;;;;5017576;28;20051;-79
2021/07/19 04:05:21;;;;;;;12.75;8.27;;;15.70;95.30;;;;;;5056916;28;20485;-79
2021/07/19 04:07:47;;;;;;;15.48;8.98;;;15.90;95.90;;;;;;5032489;28;20084;-79
2021/07/19 04:10:18;;;;;;;12.88;8.68;;;15.80;95.60;;;;;;5024447;28;20044;-79
2021/07/19 04:12:44;;;;;;;17.35;9.55;;;15.80;94.70;;;;;;5047902;28;20029;-78
2021/07/19 04:15:10;;;;;;;15.88;9.15;;;15.90;95.80;;;;;;5026824;28;24578;-79
2021/07/19 04:17:35;;;;;;;14.88;9.70;;;15.90;94.80;;;;;;5028145;28;20040;-78
2021/07/19 04:20:05;;;;;;;18.05;9.05;;;15.90;95.30;;;;;;5033351;28;20045;-79
2021/07/19 04:22:31;;;;;;;16.35;8.90;;;15.80;95.20;;;;;;5026658;28;20343;-78
2021/07/19 04:24:57;;;;;;;16.15;9.70;;;15.90;95.00;;;;;;5041226;28;20496;-78
2021/07/19 04:27:22;;;;;;;15.68;8.85;;;16.00;95.20;;;;;;5015445;28;20058;-79
2021/07/19 04:29:51;;;;;;;13.25;8.32;;;16.00;95.50;;;;;;5030267;28;20029;-79
2021/07/19 04:32:20;;;;;;;15.77;8.45;;;16.10;95.40;;;;;;5055926;28;20468;-79
2021/07/19 04:34:46;;;;;;;14.52;8.82;;;16.10;95.10;;;;;;5044756;28;20033;-78
2021/07/19 04:37:12;;;;;;;14.20;8.88;;;16.10;95.10;;;;;;5022212;28;20048;-78
2021/07/19 04:39:38;;;;;;;14.68;9.02;;;16.20;95.00;;;;;;5050984;28;20419;-79
2021/07/19 04:42:04;;;;;;;14.63;9.73;;;16.20;95.00;;;;;;5039339;28;20397;-78
2021/07/19 04:44:30;;;;;;;14.93;8.57;;;16.30;95.00;;;;;;5017011;28;20029;-79
2021/07/19 04:46:56;;;;;;;11.48;8.48;;;16.30;94.90;;;;;;5047974;28;20120;-79
2021/07/19 04:49:21;;;;;;;14.40;9.48;;;16.30;94.90;;;;;;5025390;28;20115;-79
2021/07/19 04:51:47;;;;;;;12.32;8.13;;;16.40;95.20;;;;;;5048266;28;20033;-78
2021/07/19 04:54:38;;;;;;;13.77;8.40;;;16.50;95.50;;;;;;5026900;28;20480;-78
2021/07/19 04:57:05;;;;;;;15.02;10.07;;;16.50;95.30;;;;;;5029700;28;20067;-79
2021/07/19 04:59:31;;;;;;;14.38;9.77;;;16.60;95.70;;;;;;5027162;28;20048;-78
2021/07/19 05:01:56;;;;;;;16.63;8.55;;;16.70;95.30;;;;;;5035469;28;20079;-78
2021/07/19 05:04:25;;;;;;;14.70;9.07;;;16.70;94.80;;;;;;5028743;28;20067;-77
2021/07/19 05:06:51;;;;;;;13.05;8.73;;;16.80;95.80;;;;;;5025838;28;20593;-79
2021/07/19 05:09:16;;;;;;;12.85;8.63;;;16.80;95.60;;;;;;5035660;28;20037;-79
2021/07/19 05:11:42;;;;;;;12.45;8.43;;;16.80;95.60;;;;;;5019821;28;20408;-79
2021/07/19 05:14:08;;;;;;;15.25;9.13;;;17.00;95.60;;;;;;5058315;28;20033;-78
2021/07/19 05:16:34;;;;;;;11.77;8.98;;;17.10;95.00;;;;;;5016951;28;20036;-79
2021/07/19 05:19:01;;;;;;;14.02;8.18;;;17.10;94.60;;;;;;5037239;28;20514;-79
2021/07/19 05:21:26;;;;;;;13.82;8.73;;;17.20;94.50;;;;;;5042760;28;20176;-78
2021/07/19 05:23:52;;;;;;;14.65;8.73;;;17.40;94.90;;;;;;5030631;28;20668;-78
2021/07/19 05:26:17;;;;;;;16.25;8.93;;;17.40;94.40;;;;;;5034914;28;20104;-79
2021/07/19 05:28:43;;;;;;;18.85;9.35;;;17.40;94.80;;;;;;5021065;28;20199;-79
2021/07/19 05:31:08;;;;;;;18.27;9.10;;;17.50;94.40;;;;;;5040612;28;20409;-78
2021/07/19 05:33:34;;;;;;;14.75;9.63;;;17.60;94.40;;;;;;5036561;28;20032;-79
2021/07/19 05:35:59;;;;;;;14.50;8.70;;;17.70;94.60;;;;;;5034453;28;20037;-78
2021/07/19 05:38:25;;;;;;;14.65;9.02;;;17.70;94.30;;;;;;5046654;28;20029;-78
2021/07/19 05:40:50;;;;;;;12.82;8.48;;;17.80;94.00;;;;;;5034848;28;20082;-79
2021/07/19 05:43:20;;;;;;;12.63;9.20;;;17.90;94.10;;;;;;5047844;28;20036;-79
2021/07/19 05:45:46;;;;;;;15.20;9.00;;;18.00;94.00;;;;;;5031850;28;20029;-79
2021/07/19 05:48:11;;;;;;;13.75;9.23;;;18.10;94.30;;;;;;5045374;28;20029;-78
2021/07/19 05:50:37;;;;;;;15.93;10.68;;;18.20;94.10;;;;;;5045314;28;20057;-78
2021/07/19 05:53:03;;;;;;;17.00;9.93;;;18.30;94.70;;;;;;5054980;28;20032;-79
2021/07/19 05:55:29;;;;;;;15.80;9.80;;;18.30;94.30;;;;;;5030298;28;20106;-79
2021/07/19 05:57:58;;;;;;;17.02;9.27;;;18.40;94.30;;;;;;5052421;28;20070;-79
2021/07/19 06:00:24;;;;;;;14.85;9.55;;;18.50;94.00;;;;;;5021597;28;20040;-79
2021/07/19 06:02:49;;;;;;;18.38;9.70;;;18.70;94.00;;;;;;5022975;28;20040;-78
2021/07/19 06:05:15;;;;;;;15.55;10.02;;;18.70;94.20;;;;;;5033193;28;20036;-78
2021/07/19 06:07:41;;;;;;;15.25;10.23;;;18.80;94.00;;;;;;5040330;28;20043;-78
2021/07/19 06:10:08;;;;;;;15.05;9.60;;;19.00;93.90;;;;;;5027488;28;20037;-78
2021/07/19 06:12:34;;;;;;;19.83;10.27;;;19.10;93.80;;;;;;5017080;28;20162;-79
2021/07/19 06:14:59;;;;;;;17.67;10.10;;;19.20;93.80;;;;;;5035501;28;20416;-78
2021/07/19 06:17:25;;;;;;;13.13;8.73;;;19.30;93.50;;;;;;5055736;28;20504;-78
2021/07/19 06:19:50;;;;;;;12.10;8.50;;;19.40;93.40;;;;;;5034362;28;20064;-79
2021/07/19 06:22:16;;;;;;;14.23;9.05;;;19.50;93.40;;;;;;5032363;28;20107;-78
2021/07/19 06:24:42;;;;;;;14.38;9.68;;;19.60;93.50;;;;;;5022396;28;20033;-79
2021/07/19 06:27:07;;;;;;;11.80;8.55;;;19.70;93.20;;;;;;5048085;28;20033;-78
2021/07/19 06:29:33;;;;;;;19.17;9.25;;;19.90;93.10;;;;;;5047361;28;20114;-78
2021/07/19 06:32:00;;;;;;;13.55;9.13;;;19.90;93.20;;;;;;5049175;28;20519;-78
2021/07/19 06:34:26;;;;;;;12.73;8.88;;;20.00;93.00;;;;;;5021583;28;20401;-78
2021/07/19 06:36:52;;;;;;;15.32;9.68;;;20.20;92.50;;;;;;5039505;28;20064;-78
2021/07/19 06:39:17;;;;;;;11.38;7.88;;;20.30;92.80;;;;;;5030852;28;20033;-78
2021/07/19 06:41:43;;;;;;;14.63;9.52;;;20.40;92.40;;;;;;5029647;28;20033;-79
2021/07/19 06:44:08;;;;;;;11.65;9.27;;;20.60;92.20;;;;;;5041457;28;20455;-78
2021/07/19 06:46:34;;;;;;;12.10;9.15;;;20.70;92.00;;;;;;5065615;28;20037;-79
2021/07/19 06:48:59;;;;;;;16.83;10.07;;;20.80;91.90;;;;;;5025293;28;20512;-78
2021/07/19 06:51:25;;;;;;;12.13;8.07;;;20.90;91.40;;;;;;5047482;28;20357;-79
2021/07/19 06:53:50;;;;;;;15.35;9.15;;;21.00;91.60;;;;;;5037962;28;20027;-79
2021/07/19 06:56:16;;;;;;;14.18;8.40;;;21.20;91.50;;;;;;5029235;28;20111;-79
2021/07/19 06:58:41;;;;;;;16.92;9.88;;;21.30;91.10;;;;;;5018681;28;20029;-81
2021/07/19 07:01:07;;;;;;;16.50;9.50;;;21.50;90.80;;;;;;5053823;28;20112;-80
2021/07/19 07:03:32;;;;;;;19.92;9.60;;;21.70;90.30;;;;;;5022146;28;20037;-80
2021/07/19 07:05:58;;;;;;;13.18;8.52;;;21.70;90.20;;;;;;5030299;28;20465;-80
2021/07/19 07:08:23;;;;;;;12.70;8.30;;;21.90;90.20;;;;;;5054046;28;20025;-80
2021/07/19 07:10:50;;;;;;;13.75;9.90;;;22.00;90.10;;;;;;5054434;28;20036;-79
2021/07/19 07:13:16;;;;;;;13.25;8.98;;;22.00;89.80;;;;;;5037058;28;20542;-80
2021/07/19 07:15:41;;;;;;;15.85;9.32;;;22.20;89.50;;;;;;5025841;28;20353;-79
2021/07/19 07:18:07;;;;;;;13.40;9.00;;;22.20;88.20;;;;;;5026845;28;20033;-80
2021/07/19 07:20:33;;;;;;;14.32;8.63;;;22.40;87.70;;;;;;5030123;28;20028;-79
2021/07/19 07:22:58;;;;;;;12.45;7.70;;;22.50;87.90;;;;;;5038712;28;20456;-79
2021/07/19 07:25:24;;;;;;;12.68;8.07;;;22.60;86.70;;;;;;5051410;28;20392;-78
2021/07/19 07:27:49;;;;;;;12.85;8.27;;;22.60;86.80;;;;;;5033591;28;20086;-77
2021/07/19 07:30:16;;;;;;;12.40;8.27;;;22.70;86.50;;;;;;5049069;28;20440;-78
2021/07/19 07:32:41;;;;;;;15.38;10.00;;;22.70;86.40;;;;;;5038463;28;20024;-80
2021/07/19 07:35:07;;;;;;;14.35;8.07;;;22.80;87.40;;;;;;5047324;28;20029;-78
2021/07/19 07:37:33;;;;;;;14.07;8.25;;;22.90;87.60;;;;;;5016880;28;20059;-77
2021/07/19 07:39:59;;;;;;;12.07;7.95;;;23.00;86.80;;;;;;5052215;28;20044;-79
2021/07/19 07:42:25;;;;;;;13.52;7.72;;;23.10;86.10;;;;;;5031419;28;20053;-78
2021/07/19 07:44:51;;;;;;;10.98;6.88;;;23.20;86.20;;;;;;5043064;28;20070;-79
2021/07/19 07:47:16;;;;;;;14.90;8.98;;;23.30;85.70;;;;;;5023187;28;20508;-78
2021/07/19 07:49:42;;;;;;;12.35;8.20;;;23.40;84.20;;;;;;5046134;28;20106;-79
2021/07/19 07:52:10;;;;;;;13.60;7.10;;;23.40;83.70;;;;;;5025501;28;20071;-78
2021/07/19 07:54:35;;;;;;;11.45;8.05;;;23.40;84.90;;;;;;5039416;28;20041;-77
2021/07/19 07:57:02;;;;;;;16.13;7.88;;;23.40;84.30;;;;;;5032468;28;20059;-78
2021/07/19 07:59:28;;;;;;;14.27;8.98;;;23.50;83.70;;;;;;5027330;28;20033;-77
2021/07/19 08:01:54;;;;;;;17.58;8.68;;;23.50;83.90;;;;;;5023786;28;20127;-77
2021/07/19 08:04:20;;;;;;;12.15;8.10;;;23.40;83.80;;;;;;5024536;28;20060;-78
2021/07/19 08:06:45;;;;;;;11.85;6.38;;;23.40;84.00;;;;;;5042887;28;20547;-77
2021/07/19 08:09:11;;;;;;;11.55;8.35;;;23.50;84.00;;;;;;5043623;28;20032;-77
2021/07/19 08:11:36;;;;;;;15.30;9.10;;;23.40;83.20;;;;;;5032334;28;20102;-77
2021/07/19 08:14:02;;;;;;;14.27;8.40;;;23.40;82.90;;;;;;5018217;28;20056;-77
2021/07/19 08:16:27;;;;;;;10.23;8.40;;;23.30;82.70;;;;;;5017133;28;20044;-78
2021/07/19 08:18:53;;;;;;;14.02;8.10;;;23.40;82.60;;;;;;5058482;28;20032;-77
2021/07/19 08:21:18;;;;;;;14.65;8.43;;;23.20;82.60;;;;;;5018407;28;20389;-77
2021/07/19 08:23:44;;;;;;;11.23;8.45;;;23.30;81.90;;;;;;5043466;28;20514;-78
2021/07/19 08:26:11;;;;;;;13.65;8.32;;;23.30;81.40;;;;;;5024228;28;20382;-77
2021/07/19 08:28:37;;;;;;;13.48;8.93;;;23.20;79.00;;;;;;5022827;28;20035;-77
2021/07/19 08:31:03;;;;;;;15.10;8.85;;;23.10;78.90;;;;;;5018497;28;20025;-78
2021/07/19 08:33:28;;;;;;;16.08;8.88;;;23.00;79.60;;;;;;5030463;28;20101;-78
2021/07/19 08:35:54;;;;;;;10.57;8.05;;;22.90;79.30;;;;;;5037784;28;20020;-78
2021/07/19 08:38:19;;;;;;;12.65;8.88;;;22.90;79.80;;;;;;5043598;28;20064;-76
2021/07/19 08:40:46;;;;;;;12.57;9.95;;;22.90;79.10;;;;;;5027105;28;20033;-77
2021/07/19 08:43:11;;;;;;;12.50;8.15;;;22.90;78.30;;;;;;5026623;28;20075;-76
2021/07/19 08:45:38;;;;;;;15.00;8.23;;;23.00;78.80;;;;;;5032078;28;20044;-77
2021/07/19 08:48:04;;;;;;;15.35;8.45;;;23.00;79.60;;;;;;5033791;28;20485;-77
2021/07/19 08:50:29;;;;;;;14.07;8.30;;;23.10;79.60;;;;;;5029279;28;20488;-78
2021/07/19 08:52:55;;;;;;;13.27;8.07;;;23.10;79.40;;;;;;5037369;28;20040;-77
2021/07/19 08:55:21;;;;;;;11.05;8.02;;;23.20;79.30;;;;;;5018713;28;20028;-77
2021/07/19 08:57:47;;;;;;;12.38;8.10;;;23.20;79.30;;;;;;5031972;28;20155;-78
2021/07/19 09:00:14;;;;;;;13.73;7.72;;;23.10;78.90;;;;;;5030305;28;20079;-76
2021/07/19 09:02:39;;;;;;;14.18;8.25;;;23.10;79.40;;;;;;5022226;28;20122;-76
2021/07/19 09:05:05;;;;;;;14.93;8.57;;;23.20;79.30;;;;;;5029684;28;20158;-77
2021/07/19 09:07:31;;;;;;;13.77;7.85;;;23.30;79.40;;;;;;5036295;28;20032;-77
2021/07/19 09:09:57;;;;;;;10.30;7.72;;;23.30;79.30;;;;;;5049570;28;20028;-77
2021/07/19 09:12:37;;;;;;;15.68;7.50;;;23.30;77.90;;;;;;5044325;28;20503;-76
2021/07/19 09:15:03;;;;;;;13.75;8.02;;;23.40;77.60;;;;;;5044126;28;20554;-77
2021/07/19 09:17:28;;;;;;;9.68;7.55;;;23.40;77.40;;;;;;5028699;28;20032;-77
2021/07/19 09:19:54;;;;;;;9.90;7.47;;;23.40;77.00;;;;;;5055848;28;20839;-78
2021/07/19 09:22:27;;;;;;;11.75;8.00;;;23.50;76.70;;;;;;5038108;28;20040;-77
2021/07/19 09:25:04;;;;;;;11.02;7.85;;;23.40;77.20;;;;;;5041557;28;20093;-77
2021/07/19 09:27:29;;;;;;;10.57;7.90;;;23.50;76.30;;;;;;5043254;28;20476;-77
2021/07/19 09:29:55;;;;;;;11.98;7.47;;;23.50;76.60;;;;;;5044414;28;20044;-78
2021/07/19 09:32:20;;;;;;;13.32;7.80;;;23.50;76.90;;;;;;5028761;28;20052;-78
2021/07/19 09:34:46;;;;;;;14.27;8.13;;;23.50;77.00;;;;;;5038648;28;20027;-78
2021/07/19 09:37:12;;;;;;;13.23;8.55;;;23.60;77.30;;;;;;5054376;28;20429;-78
2021/07/19 09:39:50;;;;;;;9.85;7.85;;;23.60;76.80;;;;;;5035108;28;20047;-78
2021/07/19 09:42:20;;;;;;;10.93;7.90;;;23.70;76.20;;;;;;5032861;28;20028;-77
2021/07/19 09:44:55;;;;;;;11.90;8.63;;;23.80;76.40;;;;;;5033564;28;20078;-77
2021/07/19 09:47:31;;;;;;;11.52;7.78;;;23.70;75.60;;;;;;5024380;28;20232;-77
2021/07/19 09:49:57;;;;;;;11.25;7.90;;;23.80;76.20;;;;;;5029880;28;20500;-77
2021/07/19 09:52:22;;;;;;;13.80;9.05;;;23.80;76.10;;;;;;5031627;28;20028;-77
2021/07/19 09:54:48;;;;;;;13.82;8.85;;;23.90;75.90;;;;;;5032501;28;20028;-78
2021/07/19 09:57:14;;;;;;;12.52;7.75;;;24.00;75.80;;;;;;5054170;28;20021;-78
2021/07/19 09:59:52;;;;;;;12.00;8.45;;;24.20;76.40;;;;;;5048280;28;20032;-78
2021/07/19 10:02:33;;;;;;;10.35;8.55;;;24.60;74.80;;;;;;5010137;28;20040;-78
2021/07/19 10:04:58;;;;;;;12.60;9.20;;;24.80;74.10;;;;;;5041983;28;20037;-78
2021/07/19 10:07:24;;;;;;;13.07;8.57;;;25.10;74.40;;;;;;5040916;28;20040;-79
2021/07/19 10:09:57;;;;;;;12.85;9.00;;;25.30;73.60;;;;;;5034250;28;20082;-78
2021/07/19 10:12:23;;;;;;;13.68;9.07;;;25.70;73.70;;;;;;5032033;28;20105;-78
2021/07/19 10:14:48;;;;;;;11.10;8.50;;;26.00;73.00;;;;;;5014904;28;20028;-79
2021/07/19 10:17:15;;;;;;;13.15;8.68;;;26.30;71.40;;;;;;5049166;28;20098;-79
2021/07/19 10:19:41;;;;;;;13.80;8.55;;;26.40;70.50;;;;;;5034071;28;20437;-79
2021/07/19 10:22:08;;;;;;;10.68;8.82;;;26.50;70.70;;;;;;5035411;28;20606;-80
2021/07/19 10:24:34;;;;;;;11.73;9.05;;;26.70;70.20;;;;;;5031786;28;20037;-80
2021/07/19 10:26:59;;;;;;;12.55;9.38;;;26.90;69.10;;;;;;5017191;28;20047;-81
2021/07/19 10:29:25;;;;;;;12.90;8.63;;;27.20;67.40;;;;;;5026681;28;20111;-81
2021/07/19 10:31:50;;;;;;;13.23;9.23;;;27.30;68.10;;;;;;5035098;28;20044;-81
2021/07/19 10:34:18;;;;;;;11.65;8.85;;;27.30;67.30;;;;;;5047921;28;20128;-81
2021/07/19 10:36:56;;;;;;;12.80;9.25;;;27.30;67.60;;;;;;5023318;28;20103;-81
2021/07/19 10:39:27;;;;;;;13.05;9.60;;;27.50;68.20;;;;;;5031948;28;20021;-82
2021/07/19 10:42:09;;;;;;;11.85;8.80;;;27.70;66.20;;;;;;5033426;28;20545;-81
2021/07/19 10:44:37;;;;;;;13.13;9.48;;;27.80;65.80;;;;;;5030805;28;20443;-81
2021/07/19 10:47:31;;;;;;;12.85;9.25;;;27.90;65.40;;;;;;5036912;28;20036;-82
2021/07/19 10:50:01;;;;;;;15.30;8.63;;;28.00;64.80;;;;;;5030232;28;20047;-81
2021/07/19 10:52:32;;;;;;;11.77;9.30;;;28.00;64.90;;;;;;5036254;28;20035;-81
2021/07/19 10:54:59;;;;;;;10.77;8.88;;;28.00;64.70;;;;;;5054748;28;20064;-81
2021/07/19 10:57:37;;;;;;;13.82;9.40;;;28.20;63.30;;;;;;5030305;28;20116;-81
2021/07/19 11:00:25;;;;;;;13.18;10.02;;;28.20;63.50;;;;;;5031794;28;20492;-80
2021/07/19 11:03:00;;;;;;;14.90;9.85;;;28.20;62.90;;;;;;5030547;28;20114;-80
2021/07/19 11:05:32;;;;;;;13.18;9.32;;;28.20;62.70;;;;;;5014264;28;20051;-80
2021/07/19 11:07:58;;;;;;;9.82;8.35;;;28.10;61.10;;;;;;5051891;28;20441;-80
2021/07/19 11:10:23;;;;;;;12.38;8.38;;;28.00;62.70;;;;;;5036725;28;20139;-80
2021/07/19 11:12:50;;;;;;;10.70;8.32;;;28.00;63.20;;;;;;5017560;28;20035;-80
2021/07/19 11:15:16;;;;;;;12.48;8.88;;;27.90;63.20;;;;;;5026849;28;20055;-80
2021/07/19 11:17:42;;;;;;;16.48;9.57;;;27.90;62.70;;;;;;5034107;28;20028;-83
2021/07/19 11:20:12;;;;;;;13.38;9.10;;;27.80;63.60;;;;;;5042627;28;20100;-81
2021/07/19 11:22:37;;;;;;;13.80;9.25;;;27.80;63.70;;;;;;5034718;28;20423;-82
2021/07/19 11:25:10;;;;;;;14.45;8.90;;;27.70;63.70;;;;;;5031920;28;20040;-81
2021/07/19 11:27:40;;;;;;;11.63;8.43;;;27.80;63.20;;;;;;5037785;28;20029;-81
2021/07/19 11:30:17;;;;;;;12.68;9.48;;;27.80;63.70;;;;;;5043390;28;20507;-81
2021/07/19 11:32:43;;;;;;;12.48;8.45;;;27.80;63.30;;;;;;5052466;28;20028;-82
2021/07/19 11:35:16;;;;;;;12.75;8.57;;;27.90;63.60;;;;;;5041410;28;20033;-81
2021/07/19 11:37:44;;;;;;;12.48;8.88;;;28.00;63.00;;;;;;5019629;28;20389;-81
2021/07/19 11:40:11;;;;;;;11.85;9.07;;;28.10;63.20;;;;;;5030338;28;20639;-81
2021/07/19 11:42:42;;;;;;;14.15;9.63;;;28.10;62.80;;;;;;5043671;28;20048;-81
2021/07/19 11:45:12;;;;;;;12.05;9.30;;;28.20;62.80;;;;;;5009631;28;20041;-81
2021/07/19 11:47:56;;;;;;;14.38;10.32;;;28.30;62.30;;;;;;5034218;28;20040;-80
2021/07/19 11:50:23;;;;;;;13.68;9.10;;;28.30;61.70;;;;;;5027202;28;20025;-80
2021/07/19 11:52:50;;;;;;;14.48;9.85;;;28.30;61.60;;;;;;5025204;28;20037;-80
2021/07/19 11:55:20;;;;;;;15.98;10.93;;;28.40;61.40;;;;;;5030844;28;20039;-80
2021/07/19 11:57:50;;;;;;;13.02;9.55;;;28.40;60.60;;;;;;5036980;28;20076;-80
2021/07/19 12:00:46;;;;;;;14.65;9.30;;;28.40;60.40;;;;;;5045858;28;20507;-80
2021/07/19 12:03:13;;;;;;;18.90;10.33;;;28.40;61.20;;;;;;5016823;28;20391;-80
2021/07/19 12:05:48;;;;;;;13.80;9.88;;;28.60;61.30;;;;;;5031737;28;20032;-80
2021/07/19 12:08:14;;;;;;;13.43;10.00;;;28.80;61.30;;;;;;5016240;28;20037;-80
2021/07/19 12:10:40;;;;;;;11.82;9.40;;;28.90;60.50;;;;;;5042758;28;20040;-80
2021/07/19 12:13:16;;;;;;;15.15;11.13;;;29.00;59.50;;;;;;5044858;28;20032;-79
2021/07/19 12:15:52;;;;;;;11.48;8.63;;;29.20;58.40;;;;;;5017696;28;20025;-79
2021/07/19 12:18:28;;;;;;;11.88;8.07;;;29.20;59.30;;;;;;5032562;28;20534;-79
2021/07/19 12:21:14;;;;;;;11.52;9.43;;;29.20;60.00;;;;;;5030125;28;20039;-79
2021/07/19 12:23:46;;;;;;;17.13;11.32;;;29.40;59.30;;;;;;5018882;28;20039;-78
2021/07/19 12:26:19;;;;;;;18.48;11.13;;;29.60;58.80;;;;;;5036650;28;20709;-79
2021/07/19 12:28:55;;;;;;;15.65;11.02;;;29.90;58.50;;;;;;5034033;28;20028;-78
2021/07/19 12:31:33;;;;;;;13.48;9.80;;;30.10;58.20;;;;;;5034723;28;20475;-78
2021/07/19 12:34:09;;;;;;;13.93;10.55;;;30.30;57.90;;;;;;5032744;28;20033;-78
2021/07/19 12:36:35;;;;;;;;;;;30.60;57.00;;;;;;5043899;28;20485;-79
2021/07/19 12:39:12;;;;;;;11.98;8.68;;;30.60;56.90;;;;;;5043607;28;19909;-77